Barton, MD (21521)

11:44 AM EST on February 10, 2016 (GMT -0500)
Frost Avenue, Frostburg, MD | | Change Station
CLOSE
Current Station
Personal Weather Station
Location: Frostburg, MD
Elevation: 2100 ft
Nearby Weather Stations

Elev 2100 ft 39.66 °N, 78.93 °W | Updated 13 seconds ago

Overcast
Overcast
21.9 °F
Feels Like 22 °F
N
2.5
Wind Variable Wind from West
Gusts 2.5 mph

Today
High -- | Low -- °F
--% Chance of Precip.
Yesterday
High -- | Low -- °F
Precip. -- in
Pressure 29.68 in
Visibility 2.5 miles
Clouds Overcast 1600 ft
Windchill 22 °F
Dew Point 7 °F
Humidity 51%
Rainfall 0.00 in
Snow Depth Not available.
7:15 AM 5:46 PM
Waxing Crescent, 6% visible
METAR K2G4 101635Z AUTO 25012G20KT 222V292 2 1/2SM HZ OVC016 M11/M15 A2968 RMK AO1
Pressure 29.68 in
Visibility 2.5 miles
Clouds Overcast 1600 ft
Windchill 22 °F
Dew Point 7 °F
Humidity 51%
Rainfall 0.00 in
Snow Depth Not available.
7:15 AM 5:46 PM
Waxing Crescent, 6% visible
METAR K2G4 101635Z AUTO 25012G20KT 222V292 2 1/2SM HZ OVC016 M11/M15 A2968 RMK AO1

10-Day Weather Forecast

Almanac

Astronomy

Feb. 10, 2016 Rise Set
Actual Time
Civil Twilight
Nautical Twilight
Astronomical Twilight
Moon
Length of Visible Light
Length of Day
Tomorrow will be .
, % of the Moon is Illuminated

Today's Extremes

State Highs State Lows

Community

WunderPhotos

Upload Photos

1,891,891 photos uploaded!

WunderBlog® & News

Nearby

Air Quality

  Air Quality AQ Index Pollutant
Not available.

Snow Depth

Station Depth Elevation

Earthquake Activity

City Distance Mag. Time & Date
Minimum magnitude displayed is 2.5.

Coastal Water Temperatures

Place Temperature

Stations

Nearby Weather Stations

Station Location Temp. Windchill Dew Point Humidity Wind Precip. Elev Updated Type
                   

Watches & Warnings

There are currently no watches in effect.